Avondale, Washington
Current Conditions -  °F | °C
As of 3:53 PM on Friday 19 Dec 2014 (Local Time) from KBFI Reporting Station
Broken Clouds Broken Clouds  
Wind Chill: 53°   Ceiling: 6500
Heat Index: 53°   Visibility: 10mi
Dew Point: 39°   Wind: 10mph
Humidity: 59%   Direction: 170°S
Pressure: 29.95"   Gusts: NA
Location:  47.6833°N, 122.123°W
Report Text: KBFI 192353Z 17009KT 10SM FEW041 BKN065 12/04 A2995 RMK AO2 SLP143 T01170039 10122 20106 55001
Loading
Personal Weather Stations






























Interactive Weather Map New forecast layout! Learn more

10-Day Weather Forecast

Advertisements
Track Severe Weather on mobile